sensor_id;sensor_type;location;lat;lon;timestamp;pressure;altitude;pressure_sealevel;temperature;humidity
25080;BME280;13071;48.868;9.996;2023-04-26T00:01:52;96497.97;;;5.81;100.00
25080;BME280;13071;48.868;9.996;2023-04-26T00:04:18;96501.56;;;5.77;100.00
25080;BME280;13071;48.868;9.996;2023-04-26T00:06:46;96490.94;;;5.72;100.00
25080;BME280;13071;48.868;9.996;2023-04-26T00:09:13;96488.44;;;5.75;100.00
25080;BME280;13071;48.868;9.996;2023-04-26T00:11:40;96494.03;;;5.65;100.00
25080;BME280;13071;48.868;9.996;2023-04-26T00:14:06;96496.31;;;5.72;100.00
25080;BME280;13071;48.868;9.996;2023-04-26T00:16:33;96492.13;;;5.65;100.00
25080;BME280;13071;48.868;9.996;2023-04-26T00:19:01;96490.25;;;5.66;100.00
25080;BME280;13071;48.868;9.996;2023-04-26T00:21:28;96494.41;;;5.58;100.00
25080;BME280;13071;48.868;9.996;2023-04-26T00:23:56;96498.88;;;5.63;100.00
25080;BME280;13071;48.868;9.996;2023-04-26T00:26:23;96495.66;;;5.52;100.00
25080;BME280;13071;48.868;9.996;2023-04-26T00:28:49;96492.25;;;5.47;100.00
25080;BME280;13071;48.868;9.996;2023-04-26T00:31:16;96493.66;;;5.44;100.00
25080;BME280;13071;48.868;9.996;2023-04-26T00:33:42;96498.94;;;5.36;100.00
25080;BME280;13071;48.868;9.996;2023-04-26T00:36:09;96503.41;;;5.27;100.00
25080;BME280;13071;48.868;9.996;2023-04-26T00:38:36;96503.69;;;5.25;100.00
25080;BME280;13071;48.868;9.996;2023-04-26T00:41:04;96499.84;;;5.17;100.00
25080;BME280;13071;48.868;9.996;2023-04-26T00:43:30;96500.13;;;5.16;100.00
25080;BME280;13071;48.868;9.996;2023-04-26T00:45:57;96501.50;;;5.13;100.00
25080;BME280;13071;48.868;9.996;2023-04-26T00:48:24;96502.72;;;5.07;100.00
25080;BME280;13071;48.868;9.996;2023-04-26T00:50:51;96490.97;;;5.03;100.00
25080;BME280;13071;48.868;9.996;2023-04-26T00:53:17;96502.38;;;4.95;100.00
25080;BME280;13071;48.868;9.996;2023-04-26T00:55:44;96502.56;;;4.85;100.00
25080;BME280;13071;48.868;9.996;2023-04-26T00:58:13;96502.88;;;4.84;100.00
25080;BME280;13071;48.868;9.996;2023-04-26T01:00:39;96513.91;;;4.82;100.00
25080;BME280;13071;48.868;9.996;2023-04-26T01:03:06;96512.03;;;4.96;100.00
25080;BME280;13071;48.868;9.996;2023-04-26T01:05:33;96508.97;;;5.03;100.00
25080;BME280;13071;48.868;9.996;2023-04-26T01:08:01;96514.16;;;5.13;100.00
25080;BME280;13071;48.868;9.996;2023-04-26T01:10:29;96511.16;;;5.01;100.00
25080;BME280;13071;48.868;9.996;2023-04-26T01:12:56;96504.47;;;4.98;100.00
25080;BME280;13071;48.868;9.996;2023-04-26T01:15:25;96510.44;;;4.95;100.00
25080;BME280;13071;48.868;9.996;2023-04-26T01:17:52;96514.91;;;5.00;100.00
25080;BME280;13071;48.868;9.996;2023-04-26T01:20:18;96510.03;;;4.88;100.00
25080;BME280;13071;48.868;9.996;2023-04-26T01:22:47;96510.03;;;4.88;100.00
25080;BME280;13071;48.868;9.996;2023-04-26T01:25:15;96504.06;;;4.91;100.00
25080;BME280;13071;48.868;9.996;2023-04-26T01:27:46;96509.97;;;4.93;100.00
25080;BME280;13071;48.868;9.996;2023-04-26T01:30:13;96509.44;;;4.91;100.00
25080;BME280;13071;48.868;9.996;2023-04-26T01:32:39;96512.84;;;4.97;100.00
25080;BME280;13071;48.868;9.996;2023-04-26T01:35:06;96515.50;;;4.83;100.00
25080;BME280;13071;48.868;9.996;2023-04-26T01:37:33;96517.47;;;4.77;100.00
25080;BME280;13071;48.868;9.996;2023-04-26T01:40:01;96505.34;;;4.80;100.00
25080;BME280;13071;48.868;9.996;2023-04-26T01:42:29;96516.06;;;4.80;100.00
25080;BME280;13071;48.868;9.996;2023-04-26T01:44:56;96514.00;;;4.77;100.00
25080;BME280;13071;48.868;9.996;2023-04-26T01:47:22;96517.16;;;4.79;100.00
25080;BME280;13071;48.868;9.996;2023-04-26T01:49:50;96514.00;;;4.77;100.00
25080;BME280;13071;48.868;9.996;2023-04-26T01:52:17;96517.47;;;4.77;100.00
25080;BME280;13071;48.868;9.996;2023-04-26T01:54:43;96527.50;;;4.72;100.00
25080;BME280;13071;48.868;9.996;2023-04-26T01:57:11;96515.69;;;4.73;100.00
25080;BME280;13071;48.868;9.996;2023-04-26T01:59:38;96518.72;;;4.66;100.00
25080;BME280;13071;48.868;9.996;2023-04-26T02:02:05;96514.44;;;4.65;100.00
25080;BME280;13071;48.868;9.996;2023-04-26T02:04:31;96517.13;;;4.65;100.00
25080;BME280;13071;48.868;9.996;2023-04-26T02:06:58;96517.66;;;4.67;100.00
25080;BME280;13071;48.868;9.996;2023-04-26T02:09:24;96519.81;;;4.65;100.00
25080;BME280;13071;48.868;9.996;2023-04-26T02:11:51;96514.53;;;4.60;100.00
25080;BME280;13071;48.868;9.996;2023-04-26T02:14:19;96513.53;;;4.56;100.00
25080;BME280;13071;48.868;9.996;2023-04-26T02:16:45;96515.78;;;4.49;100.00
25080;BME280;13071;48.868;9.996;2023-04-26T02:19:12;96512.16;;;4.59;100.00
25080;BME280;13071;48.868;9.996;2023-04-26T02:21:53;96515.50;;;4.51;100.00
25080;BME280;13071;48.868;9.996;2023-04-26T02:24:21;96514.22;;;4.48;100.00
25080;BME280;13071;48.868;9.996;2023-04-26T02:26:48;96512.19;;;4.40;100.00
25080;BME280;13071;48.868;9.996;2023-04-26T02:29:15;96518.38;;;4.22;100.00
25080;BME280;13071;48.868;9.996;2023-04-26T02:31:42;96512.75;;;4.23;100.00
25080;BME280;13071;48.868;9.996;2023-04-26T02:34:09;96513.22;;;4.25;100.00
25080;BME280;13071;48.868;9.996;2023-04-26T02:36:36;96514.59;;;4.42;100.00
25080;BME280;13071;48.868;9.996;2023-04-26T02:39:02;96512.88;;;4.32;100.00
25080;BME280;13071;48.868;9.996;2023-04-26T02:41:30;96511.28;;;4.31;100.00
25080;BME280;13071;48.868;9.996;2023-04-26T02:43:57;96515.28;;;4.33;100.00
25080;BME280;13071;48.868;9.996;2023-04-26T02:46:24;96514.47;;;4.33;100.00
25080;BME280;13071;48.868;9.996;2023-04-26T02:48:52;96521.00;;;4.27;100.00
25080;BME280;13071;48.868;9.996;2023-04-26T02:51:18;96516.72;;;4.26;100.00
25080;BME280;13071;48.868;9.996;2023-04-26T02:53:45;96511.81;;;4.14;100.00
25080;BME280;13071;48.868;9.996;2023-04-26T02:56:11;96511.38;;;4.07;100.00
25080;BME280;13071;48.868;9.996;2023-04-26T02:58:38;96510.72;;;3.97;100.00
25080;BME280;13071;48.868;9.996;2023-04-26T03:01:04;96511.97;;;4.04;100.00
25080;BME280;13071;48.868;9.996;2023-04-26T03:03:31;96512.06;;;3.99;100.00
25080;BME280;13071;48.868;9.996;2023-04-26T03:05:59;96517.25;;;3.90;100.00
25080;BME280;13071;48.868;9.996;2023-04-26T03:08:25;96513.56;;;3.86;100.00
25080;BME280;13071;48.868;9.996;2023-04-26T03:10:53;96523.63;;;3.95;100.00
25080;BME280;13071;48.868;9.996;2023-04-26T03:13:21;96515.28;;;3.96;100.00
25080;BME280;13071;48.868;9.996;2023-04-26T03:15:48;96522.53;;;3.96;100.00
25080;BME280;13071;48.868;9.996;2023-04-26T03:18:16;96518.75;;;3.97;100.00
25080;BME280;13071;48.868;9.996;2023-04-26T03:20:44;96518.09;;;3.86;100.00
25080;BME280;13071;48.868;9.996;2023-04-26T03:23:12;96509.66;;;3.79;100.00
25080;BME280;13071;48.868;9.996;2023-04-26T03:25:39;96522.38;;;3.87;100.00
25080;BME280;13071;48.868;9.996;2023-04-26T03:28:05;96525.00;;;3.92;100.00
25080;BME280;13071;48.868;9.996;2023-04-26T03:30:32;96519.84;;;3.96;100.00
25080;BME280;13071;48.868;9.996;2023-04-26T03:32:58;96515.75;;;3.84;100.00
25080;BME280;13071;48.868;9.996;2023-04-26T03:35:25;96512.41;;;3.92;100.00
25080;BME280;13071;48.868;9.996;2023-04-26T03:37:52;96517.97;;;3.77;100.00
25080;BME280;13071;48.868;9.996;2023-04-26T03:40:19;96520.25;;;3.65;100.00
25080;BME280;13071;48.868;9.996;2023-04-26T03:42:46;96526.13;;;3.67;100.00
25080;BME280;13071;48.868;9.996;2023-04-26T03:45:13;96526.88;;;3.73;100.00
25080;BME280;13071;48.868;9.996;2023-04-26T03:47:39;96532.88;;;3.65;100.00
25080;BME280;13071;48.868;9.996;2023-04-26T03:50:07;96535.47;;;3.70;100.00
25080;BME280;13071;48.868;9.996;2023-04-26T03:52:34;96533.94;;;3.64;100.00
25080;BME280;13071;48.868;9.996;2023-04-26T03:55:00;96534.44;;;3.66;100.00
25080;BME280;13071;48.868;9.996;2023-04-26T03:57:29;96537.31;;;3.51;100.00
25080;BME280;13071;48.868;9.996;2023-04-26T03:59:55;96546.66;;;3.53;100.00
25080;BME280;13071;48.868;9.996;2023-04-26T04:02:22;96546.38;;;3.55;100.00
25080;BME280;13071;48.868;9.996;2023-04-26T04:04:48;96545.34;;;3.51;100.00
25080;BME280;13071;48.868;9.996;2023-04-26T04:07:15;96545.66;;;3.49;100.00
25080;BME280;13071;48.868;9.996;2023-04-26T04:09:42;96541.94;;;3.45;100.00
25080;BME280;13071;48.868;9.996;2023-04-26T04:12:08;96546.25;;;3.41;100.00
25080;BME280;13071;48.868;9.996;2023-04-26T04:14:36;96537.78;;;3.34;100.00
25080;BME280;13071;48.868;9.996;2023-04-26T04:17:03;96534.91;;;3.30;100.00
25080;BME280;13071;48.868;9.996;2023-04-26T04:19:29;96538.66;;;3.29;100.00
25080;BME280;13071;48.868;9.996;2023-04-26T04:21:56;96544.88;;;3.25;100.00
25080;BME280;13071;48.868;9.996;2023-04-26T04:24:22;96549.16;;;3.21;100.00
25080;BME280;13071;48.868;9.996;2023-04-26T04:26:49;96551.34;;;3.19;100.00
25080;BME280;13071;48.868;9.996;2023-04-26T04:29:16;96552.94;;;3.20;100.00
25080;BME280;13071;48.868;9.996;2023-04-26T04:31:44;96555.88;;;3.18;100.00
25080;BME280;13071;48.868;9.996;2023-04-26T04:34:11;96560.44;;;3.18;100.00
25080;BME280;13071;48.868;9.996;2023-04-26T04:36:37;96562.13;;;3.09;100.00
25080;BME280;13071;48.868;9.996;2023-04-26T04:39:04;96555.72;;;3.10;100.00
25080;BME280;13071;48.868;9.996;2023-04-26T04:41:36;96551.00;;;3.25;100.00
25080;BME280;13071;48.868;9.996;2023-04-26T04:44:03;96560.78;;;3.35;99.78
25080;BME280;13071;48.868;9.996;2023-04-26T04:46:30;96554.75;;;3.48;99.05
25080;BME280;13071;48.868;9.996;2023-04-26T04:48:58;96554.03;;;3.61;98.11
25080;BME280;13071;48.868;9.996;2023-04-26T04:51:25;96549.34;;;3.72;97.28
25080;BME280;13071;48.868;9.996;2023-04-26T04:53:52;96555.91;;;3.84;97.13
25080;BME280;13071;48.868;9.996;2023-04-26T04:56:19;96564.56;;;3.95;95.53
25080;BME280;13071;48.868;9.996;2023-04-26T04:58:46;96564.22;;;3.83;94.86
25080;BME280;13071;48.868;9.996;2023-04-26T05:01:12;96567.25;;;3.95;95.40
25080;BME280;13071;48.868;9.996;2023-04-26T05:03:39;96563.78;;;3.95;94.54
25080;BME280;13071;48.868;9.996;2023-04-26T05:06:07;96564.66;;;4.09;95.27
25080;BME280;13071;48.868;9.996;2023-04-26T05:08:34;96563.47;;;4.15;94.23
25080;BME280;13071;48.868;9.996;2023-04-26T05:11:00;96568.91;;;4.10;93.85
25080;BME280;13071;48.868;9.996;2023-04-26T05:13:27;96554.28;;;4.21;94.76
25080;BME280;13071;48.868;9.996;2023-04-26T05:15:53;96571.22;;;4.54;93.43
25080;BME280;13071;48.868;9.996;2023-04-26T05:18:20;96564.91;;;4.63;92.27
25080;BME280;13071;48.868;9.996;2023-04-26T05:20:47;96573.34;;;4.70;91.29
25080;BME280;13071;48.868;9.996;2023-04-26T05:23:15;96577.25;;;4.78;89.73
25080;BME280;13071;48.868;9.996;2023-04-26T05:25:41;96579.78;;;5.02;89.53
25080;BME280;13071;48.868;9.996;2023-04-26T05:28:08;96580.97;;;4.96;88.63
25080;BME280;13071;48.868;9.996;2023-04-26T05:30:36;96582.66;;;5.05;88.48
25080;BME280;13071;48.868;9.996;2023-04-26T05:33:03;96591.53;;;5.19;89.81
25080;BME280;13071;48.868;9.996;2023-04-26T05:35:30;96594.06;;;5.71;88.39
25080;BME280;13071;48.868;9.996;2023-04-26T05:37:57;96591.84;;;5.73;87.09
25080;BME280;13071;48.868;9.996;2023-04-26T05:40:25;96595.81;;;5.20;87.75
25080;BME280;13071;48.868;9.996;2023-04-26T05:42:51;96602.75;;;5.08;91.35
25080;BME280;13071;48.868;9.996;2023-04-26T05:45:18;96603.44;;;5.13;89.49
25080;BME280;13071;48.868;9.996;2023-04-26T05:47:44;96614.16;;;4.67;91.73
25080;BME280;13071;48.868;9.996;2023-04-26T05:50:11;96609.22;;;5.20;91.42
25080;BME280;13071;48.868;9.996;2023-04-26T05:52:38;96607.47;;;5.43;90.19
25080;BME280;13071;48.868;9.996;2023-04-26T05:55:05;96613.34;;;5.32;90.29
25080;BME280;13071;48.868;9.996;2023-04-26T05:57:33;96616.13;;;5.54;90.74
25080;BME280;13071;48.868;9.996;2023-04-26T06:00:00;96610.78;;;5.81;88.77
25080;BME280;13071;48.868;9.996;2023-04-26T06:02:27;96609.19;;;5.67;88.92
25080;BME280;13071;48.868;9.996;2023-04-26T06:04:53;96619.53;;;6.00;87.74
25080;BME280;13071;48.868;9.996;2023-04-26T06:07:20;96617.72;;;6.10;86.78
25080;BME280;13071;48.868;9.996;2023-04-26T06:09:47;96615.63;;;6.20;87.35
25080;BME280;13071;48.868;9.996;2023-04-26T06:12:13;96618.38;;;6.29;86.87
25080;BME280;13071;48.868;9.996;2023-04-26T06:14:42;96623.28;;;6.13;87.16
25080;BME280;13071;48.868;9.996;2023-04-26T06:17:08;96621.44;;;6.72;86.24
25080;BME280;13071;48.868;9.996;2023-04-26T06:19:35;96619.97;;;6.88;86.42
25080;BME280;13071;48.868;9.996;2023-04-26T06:22:01;96614.53;;;6.79;86.61
25080;BME280;13071;48.868;9.996;2023-04-26T06:24:29;96616.63;;;6.60;87.55
25080;BME280;13071;48.868;9.996;2023-04-26T06:26:55;96617.94;;;7.16;85.89
25080;BME280;13071;48.868;9.996;2023-04-26T06:29:22;96617.59;;;7.09;85.65
25080;BME280;13071;48.868;9.996;2023-04-26T06:31:50;96613.63;;;7.37;83.69
25080;BME280;13071;48.868;9.996;2023-04-26T06:34:16;96616.41;;;7.54;85.82
25080;BME280;13071;48.868;9.996;2023-04-26T06:36:43;96625.41;;;7.19;85.82
25080;BME280;13071;48.868;9.996;2023-04-26T06:39:10;96621.59;;;7.90;83.99
25080;BME280;13071;48.868;9.996;2023-04-26T06:41:36;96620.19;;;7.53;83.65
25080;BME280;13071;48.868;9.996;2023-04-26T06:44:03;96617.25;;;7.72;82.68
25080;BME280;13071;48.868;9.996;2023-04-26T06:46:30;96622.84;;;6.91;84.95
25080;BME280;13071;48.868;9.996;2023-04-26T06:48:58;96629.09;;;7.31;86.19
25080;BME280;13071;48.868;9.996;2023-04-26T06:51:24;96631.13;;;7.26;85.78
25080;BME280;13071;48.868;9.996;2023-04-26T06:53:51;96628.31;;;8.10;83.32
25080;BME280;13071;48.868;9.996;2023-04-26T06:56:18;96636.78;;;7.77;83.14
25080;BME280;13071;48.868;9.996;2023-04-26T06:58:57;96631.00;;;8.01;84.26
25080;BME280;13071;48.868;9.996;2023-04-26T07:01:24;96634.25;;;7.81;85.36
25080;BME280;13071;48.868;9.996;2023-04-26T07:03:53;96632.03;;;7.44;84.04
25080;BME280;13071;48.868;9.996;2023-04-26T07:06:21;96628.84;;;7.81;82.03
25080;BME280;13071;48.868;9.996;2023-04-26T07:08:48;96622.59;;;8.03;76.28
25080;BME280;13071;48.868;9.996;2023-04-26T07:11:15;96625.69;;;7.79;75.00
25080;BME280;13071;48.868;9.996;2023-04-26T07:13:41;96624.91;;;8.35;76.21
25080;BME280;13071;48.868;9.996;2023-04-26T07:16:08;96626.25;;;8.15;75.54
25080;BME280;13071;48.868;9.996;2023-04-26T07:18:35;96619.78;;;7.68;74.59
25080;BME280;13071;48.868;9.996;2023-04-26T07:21:01;96619.41;;;7.53;78.46
25080;BME280;13071;48.868;9.996;2023-04-26T07:23:29;96625.28;;;8.03;77.43
25080;BME280;13071;48.868;9.996;2023-04-26T07:25:56;96619.94;;;8.20;76.40
25080;BME280;13071;48.868;9.996;2023-04-26T07:28:22;96617.25;;;7.63;75.00
25080;BME280;13071;48.868;9.996;2023-04-26T07:30:49;96624.81;;;8.01;70.86
25080;BME280;13071;48.868;9.996;2023-04-26T07:33:16;96610.97;;;8.33;72.86
25080;BME280;13071;48.868;9.996;2023-04-26T07:35:42;96610.47;;;8.74;73.39
25080;BME280;13071;48.868;9.996;2023-04-26T07:38:09;96608.25;;;8.85;74.09
25080;BME280;13071;48.868;9.996;2023-04-26T07:40:40;96606.03;;;8.95;66.14
25080;BME280;13071;48.868;9.996;2023-04-26T07:43:07;96606.03;;;8.35;68.99
25080;BME280;13071;48.868;9.996;2023-04-26T07:45:34;96603.34;;;8.78;70.87
25080;BME280;13071;48.868;9.996;2023-04-26T07:48:00;96596.69;;;8.93;71.64
25080;BME280;13071;48.868;9.996;2023-04-26T07:50:27;96603.44;;;9.25;73.46
25080;BME280;13071;48.868;9.996;2023-04-26T07:52:53;96606.94;;;9.25;68.94
25080;BME280;13071;48.868;9.996;2023-04-26T07:55:20;96612.34;;;9.17;64.70
25080;BME280;13071;48.868;9.996;2023-04-26T07:57:48;96605.13;;;9.38;65.20
25080;BME280;13071;48.868;9.996;2023-04-26T08:00:15;96613.16;;;9.08;67.88
25080;BME280;13071;48.868;9.996;2023-04-26T08:02:43;96608.53;;;9.09;66.79
25080;BME280;13071;48.868;9.996;2023-04-26T08:05:10;96612.34;;;9.17;68.44
25080;BME280;13071;48.868;9.996;2023-04-26T08:07:37;96609.81;;;9.03;67.25
25080;BME280;13071;48.868;9.996;2023-04-26T08:10:04;96610.75;;;9.24;65.08
25080;BME280;13071;48.868;9.996;2023-04-26T08:12:31;96613.16;;;9.08;66.07
25080;BME280;13071;48.868;9.996;2023-04-26T08:15:00;96613.28;;;9.29;67.03
25080;BME280;13071;48.868;9.996;2023-04-26T08:17:27;96608.34;;;9.31;64.97
25080;BME280;13071;48.868;9.996;2023-04-26T08:19:54;96605.72;;;9.61;65.56
25080;BME280;13071;48.868;9.996;2023-04-26T08:22:20;96604.78;;;9.94;63.50
25080;BME280;13071;48.868;9.996;2023-04-26T08:24:49;96603.53;;;10.13;63.45
25080;BME280;13071;48.868;9.996;2023-04-26T08:27:15;96603.56;;;10.42;63.75
25080;BME280;13071;48.868;9.996;2023-04-26T08:29:43;96609.25;;;10.49;64.79
25080;BME280;13071;48.868;9.996;2023-04-26T08:32:11;96608.84;;;10.59;62.93
25080;BME280;13071;48.868;9.996;2023-04-26T08:34:38;96614.91;;;10.35;61.46
25080;BME280;13071;48.868;9.996;2023-04-26T08:37:05;96604.94;;;10.90;61.35
25080;BME280;13071;48.868;9.996;2023-04-26T08:39:32;96602.53;;;11.09;59.35
25080;BME280;13071;48.868;9.996;2023-04-26T08:42:04;96611.91;;;11.11;59.35
25080;BME280;13071;48.868;9.996;2023-04-26T08:44:34;96614.97;;;10.48;60.14
25080;BME280;13071;48.868;9.996;2023-04-26T08:47:04;96617.69;;;10.68;61.19
25080;BME280;13071;48.868;9.996;2023-04-26T08:49:38;96614.63;;;9.52;57.81
25080;BME280;13071;48.868;9.996;2023-04-26T08:52:08;96611.56;;;9.63;58.92
25080;BME280;13071;48.868;9.996;2023-04-26T08:54:36;96610.06;;;10.12;58.73
25080;BME280;13071;48.868;9.996;2023-04-26T08:57:03;96618.34;;;10.45;58.63
25080;BME280;13071;48.868;9.996;2023-04-26T08:59:32;96609.88;;;10.67;57.86
25080;BME280;13071;48.868;9.996;2023-04-26T09:01:59;96616.50;;;10.57;63.32
25080;BME280;13071;48.868;9.996;2023-04-26T09:04:27;96618.34;;;9.86;63.18
25080;BME280;13071;48.868;9.996;2023-04-26T09:06:59;96619.78;;;9.28;58.99
25080;BME280;13071;48.868;9.996;2023-04-26T09:09:26;96617.34;;;10.28;57.70
25080;BME280;13071;48.868;9.996;2023-04-26T09:11:58;96618.44;;;9.60;60.34
25080;BME280;13071;48.868;9.996;2023-04-26T09:14:27;96619.16;;;9.78;61.08
25080;BME280;13071;48.868;9.996;2023-04-26T09:16:54;96618.25;;;9.65;62.35
25080;BME280;13071;48.868;9.996;2023-04-26T09:19:34;96609.63;;;9.25;59.29
25080;BME280;13071;48.868;9.996;2023-04-26T09:22:02;96614.72;;;10.11;60.01
25080;BME280;13071;48.868;9.996;2023-04-26T09:24:45;96612.72;;;10.29;56.28
25080;BME280;13071;48.868;9.996;2023-04-26T09:27:12;96607.13;;;10.75;57.88
25080;BME280;13071;48.868;9.996;2023-04-26T09:29:40;96605.34;;;11.12;59.14
25080;BME280;13071;48.868;9.996;2023-04-26T09:32:07;96600.81;;;11.04;59.23
25080;BME280;13071;48.868;9.996;2023-04-26T09:34:43;96589.94;;;11.25;57.66
25080;BME280;13071;48.868;9.996;2023-04-26T09:37:12;96596.97;;;10.72;58.75
25080;BME280;13071;48.868;9.996;2023-04-26T09:39:40;96591.50;;;10.10;58.98
25080;BME280;13071;48.868;9.996;2023-04-26T09:42:07;96592.78;;;9.75;60.67
25080;BME280;13071;48.868;9.996;2023-04-26T09:44:36;96600.94;;;8.94;60.66
25080;BME280;13071;48.868;9.996;2023-04-26T09:47:04;96597.78;;;9.93;58.81
25080;BME280;13071;48.868;9.996;2023-04-26T09:49:32;96594.56;;;10.29;58.55
25080;BME280;13071;48.868;9.996;2023-04-26T09:52:00;96591.38;;;10.36;59.42
25080;BME280;13071;48.868;9.996;2023-04-26T09:54:41;96598.41;;;10.49;56.62
25080;BME280;13071;48.868;9.996;2023-04-26T09:57:09;96595.97;;;10.35;56.36
25080;BME280;13071;48.868;9.996;2023-04-26T09:59:44;96596.56;;;10.82;54.60
25080;BME280;13071;48.868;9.996;2023-04-26T10:02:18;96582.56;;;11.13;56.65
25080;BME280;13071;48.868;9.996;2023-04-26T10:04:48;96580.69;;;11.26;58.34
25080;BME280;13071;48.868;9.996;2023-04-26T10:07:16;96587.91;;;11.79;57.01
25080;BME280;13071;48.868;9.996;2023-04-26T10:09:44;96581.50;;;11.84;58.34
25080;BME280;13071;48.868;9.996;2023-04-26T10:12:11;96570.41;;;11.89;55.43
25080;BME280;13071;48.868;9.996;2023-04-26T10:14:38;96575.22;;;12.32;55.48
25080;BME280;13071;48.868;9.996;2023-04-26T10:17:05;96565.50;;;12.31;52.82
25080;BME280;13071;48.868;9.996;2023-04-26T10:19:33;96570.38;;;12.37;54.02
25080;BME280;13071;48.868;9.996;2023-04-26T10:22:04;96567.13;;;12.07;55.35
25080;BME280;13071;48.868;9.996;2023-04-26T10:24:31;96567.97;;;12.36;54.34
25080;BME280;13071;48.868;9.996;2023-04-26T10:26:59;96568.34;;;12.10;53.97
25080;BME280;13071;48.868;9.996;2023-04-26T10:32:28;96567.19;;;10.72;54.88
25080;BME280;13071;48.868;9.996;2023-04-26T10:35:08;96569.03;;;10.18;57.26
25080;BME280;13071;48.868;9.996;2023-04-26T10:37:35;96569.16;;;10.63;59.54
25080;BME280;13071;48.868;9.996;2023-04-26T10:40:23;96573.53;;;9.76;58.51
25080;BME280;13071;48.868;9.996;2023-04-26T10:43:27;96560.91;;;9.89;58.54
25080;BME280;13071;48.868;9.996;2023-04-26T10:45:54;96564.09;;;10.20;58.11
25080;BME280;13071;48.868;9.996;2023-04-26T10:48:23;96556.81;;;10.74;57.06
25080;BME280;13071;48.868;9.996;2023-04-26T10:51:09;96566.34;;;10.10;59.11
25080;BME280;13071;48.868;9.996;2023-04-26T10:53:57;96561.25;;;10.37;59.31
25080;BME280;13071;48.868;9.996;2023-04-26T10:56:51;96553.56;;;11.14;57.02
25080;BME280;13071;48.868;9.996;2023-04-26T10:59:20;96552.66;;;10.56;56.09
25080;BME280;13071;48.868;9.996;2023-04-26T11:01:47;96549.59;;;11.11;57.50
25080;BME280;13071;48.868;9.996;2023-04-26T11:04:14;96556.38;;;10.52;54.78
25080;BME280;13071;48.868;9.996;2023-04-26T11:06:48;96553.09;;;10.25;55.99
25080;BME280;13071;48.868;9.996;2023-04-26T11:09:34;96556.41;;;9.64;56.04
25080;BME280;13071;48.868;9.996;2023-04-26T11:12:05;96565.69;;;10.13;56.54
25080;BME280;13071;48.868;9.996;2023-04-26T11:14:34;96556.56;;;10.47;53.91
25080;BME280;13071;48.868;9.996;2023-04-26T11:17:04;96552.72;;;10.68;51.60
25080;BME280;13071;48.868;9.996;2023-04-26T11:19:31;96544.16;;;11.44;52.55
25080;BME280;13071;48.868;9.996;2023-04-26T11:21:58;96541.44;;;11.56;53.27
25080;BME280;13071;48.868;9.996;2023-04-26T11:24:25;96545.78;;;11.82;49.89
25080;BME280;13071;48.868;9.996;2023-04-26T11:26:52;96537.88;;;11.89;49.38
25080;BME280;13071;48.868;9.996;2023-04-26T11:29:18;96537.38;;;12.11;49.17
25080;BME280;13071;48.868;9.996;2023-04-26T11:31:51;96541.34;;;12.14;49.53
25080;BME280;13071;48.868;9.996;2023-04-26T11:34:20;96527.78;;;12.53;47.05
25080;BME280;13071;48.868;9.996;2023-04-26T11:36:47;96528.88;;;12.37;50.66
25080;BME280;13071;48.868;9.996;2023-04-26T11:39:14;96523.59;;;11.67;52.06
25080;BME280;13071;48.868;9.996;2023-04-26T11:41:40;96517.03;;;12.57;51.14
25080;BME280;13071;48.868;9.996;2023-04-26T11:44:10;96523.19;;;12.97;50.45
25080;BME280;13071;48.868;9.996;2023-04-26T11:46:36;96518.03;;;12.92;48.57
25080;BME280;13071;48.868;9.996;2023-04-26T11:49:06;96518.47;;;13.10;48.63
25080;BME280;13071;48.868;9.996;2023-04-26T11:51:33;96517.38;;;13.11;49.88
25080;BME280;13071;48.868;9.996;2023-04-26T11:54:00;96506.59;;;12.59;49.88
25080;BME280;13071;48.868;9.996;2023-04-26T11:56:27;96501.53;;;12.58;50.16
25080;BME280;13071;48.868;9.996;2023-04-26T11:58:55;96500.53;;;12.78;48.28
25080;BME280;13071;48.868;9.996;2023-04-26T12:01:24;96496.34;;;12.52;49.29
25080;BME280;13071;48.868;9.996;2023-04-26T12:03:51;96504.28;;;12.05;48.44
25080;BME280;13071;48.868;9.996;2023-04-26T12:06:20;96502.22;;;12.54;50.27
25080;BME280;13071;48.868;9.996;2023-04-26T12:08:51;96501.84;;;11.07;54.35
25080;BME280;13071;48.868;9.996;2023-04-26T12:11:18;96495.47;;;10.78;51.91
25080;BME280;13071;48.868;9.996;2023-04-26T12:13:45;96498.88;;;11.57;52.23
25080;BME280;13071;48.868;9.996;2023-04-26T12:16:12;96485.63;;;12.44;49.67
25080;BME280;13071;48.868;9.996;2023-04-26T12:18:40;96487.50;;;12.83;48.36
25080;BME280;13071;48.868;9.996;2023-04-26T12:21:06;96484.78;;;13.11;49.50
25080;BME280;13071;48.868;9.996;2023-04-26T12:23:38;96480.31;;;13.19;49.58
25080;BME280;13071;48.868;9.996;2023-04-26T12:26:05;96489.91;;;13.01;50.18
25080;BME280;13071;48.868;9.996;2023-04-26T12:28:34;96482.06;;;13.27;48.09
25080;BME280;13071;48.868;9.996;2023-04-26T12:31:02;96480.63;;;13.17;49.21
25080;BME280;13071;48.868;9.996;2023-04-26T12:33:29;96479.53;;;13.34;47.23
25080;BME280;13071;48.868;9.996;2023-04-26T12:35:57;96472.34;;;13.42;49.61
25080;BME280;13071;48.868;9.996;2023-04-26T12:38:24;96480.25;;;12.87;46.64
25080;BME280;13071;48.868;9.996;2023-04-26T12:40:52;96475.22;;;13.33;47.85
25080;BME280;13071;48.868;9.996;2023-04-26T12:43:19;96480.00;;;11.97;52.25
25080;BME280;13071;48.868;9.996;2023-04-26T12:45:48;96469.63;;;12.98;49.33
25080;BME280;13071;48.868;9.996;2023-04-26T12:48:14;96465.59;;;13.35;47.11
25080;BME280;13071;48.868;9.996;2023-04-26T12:50:41;96469.50;;;13.07;48.29
25080;BME280;13071;48.868;9.996;2023-04-26T12:53:08;96463.88;;;13.62;47.39
25080;BME280;13071;48.868;9.996;2023-04-26T12:55:35;96469.59;;;13.57;49.63
25080;BME280;13071;48.868;9.996;2023-04-26T12:58:03;96467.38;;;12.57;51.04
25080;BME280;13071;48.868;9.996;2023-04-26T13:00:30;96465.84;;;13.15;50.32
25080;BME280;13071;48.868;9.996;2023-04-26T13:02:57;96472.00;;;11.88;51.94
25080;BME280;13071;48.868;9.996;2023-04-26T13:05:23;96467.25;;;11.85;51.63
25080;BME280;13071;48.868;9.996;2023-04-26T13:07:50;96473.88;;;12.40;50.05
25080;BME280;13071;48.868;9.996;2023-04-26T13:10:16;96475.41;;;11.73;51.99